Weather at Bowling Green Warren County Regional Airport

Public forecast

Using degrees Fahrenheit for public forecast. Weather courtesy of forecast.io.

Current aviation weather report (METAR) for Bowling Green Warren County Regional Airport

2024/05/29 18:53 (retrieved 30 minutes ago)

KBWG 291853Z AUTO 35007G17KT 310V040 10SM CLR 24/09 A3014 RMK AO2 SLP201 T02440094

Aviation forecast (TAF) for Bowling Green Warren County Regional Airport

2024/05/29 18:22 (retrieved 1 hour ago)

TAF KBWG 291720Z 2918/3018 31012G22KT P6SM SCT050 FM300000 VRB03KT P6SM SKC